createdAt,value
2022-12-31T00:02:36.120Z,2.30
2022-12-31T00:05:37.881Z,2.67
2022-12-31T00:08:39.320Z,2.17
2022-12-31T00:11:40.837Z,3.40
2022-12-31T00:14:42.282Z,2.53
2022-12-31T00:17:43.850Z,2.40
2022-12-31T00:20:45.308Z,2.17
2022-12-31T00:23:47.738Z,2.13
2022-12-31T00:26:49.240Z,1.75
2022-12-31T00:29:50.709Z,2.35
2022-12-31T00:32:52.882Z,2.63
2022-12-31T00:35:54.341Z,2.15
2022-12-31T00:38:57.415Z,2.38
2022-12-31T00:41:58.955Z,3.00
2022-12-31T00:45:00.391Z,2.08
2022-12-31T00:48:01.833Z,2.30
2022-12-31T00:51:05.140Z,2.15
2022-12-31T00:54:06.682Z,1.90
2022-12-31T00:57:08.176Z,1.75
2022-12-31T01:00:10.551Z,1.80
2022-12-31T01:03:12.088Z,3.25
2022-12-31T01:06:13.972Z,3.05
2022-12-31T01:09:16.690Z,1.92
2022-12-31T01:12:18.187Z,2.95
2022-12-31T01:15:19.626Z,1.55
2022-12-31T01:18:21.094Z,2.35
2022-12-31T01:21:22.829Z,2.33
2022-12-31T01:24:24.629Z,2.38
2022-12-31T01:27:26.169Z,2.58
2022-12-31T01:30:27.673Z,1.40
2022-12-31T01:33:29.195Z,2.25
2022-12-31T01:36:32.741Z,3.92
2022-12-31T01:39:34.218Z,2.15
2022-12-31T01:42:35.727Z,2.58
2022-12-31T01:45:37.251Z,1.92
2022-12-31T01:48:38.862Z,1.98
2022-12-31T01:51:42.738Z,2.00
2022-12-31T01:54:48.841Z,1.75
2022-12-31T01:57:55.888Z,1.60
2022-12-31T02:00:58.757Z,1.98
2022-12-31T02:04:06.943Z,2.10
2022-12-31T02:07:10.216Z,2.10
2022-12-31T02:10:11.704Z,1.52
2022-12-31T02:13:14.920Z,1.85
2022-12-31T02:16:55.561Z,1.85
2022-12-31T02:20:12.336Z,1.42
2022-12-31T02:23:13.773Z,1.23
2022-12-31T02:26:36.885Z,1.65
2022-12-31T02:29:59.428Z,1.35
2022-12-31T02:33:28.160Z,1.73
2022-12-31T02:36:35.925Z,1.45
2022-12-31T02:39:38.241Z,1.58
2022-12-31T02:42:39.758Z,1.88
2022-12-31T02:45:45.125Z,2.65
2022-12-31T02:49:12.853Z,2.10
2022-12-31T02:52:20.230Z,1.58
2022-12-31T02:55:33.803Z,1.30
2022-12-31T02:59:00.221Z,1.60
2022-12-31T03:02:15.017Z,1.65
2022-12-31T03:05:21.156Z,1.67
2022-12-31T03:08:24.295Z,1.27
2022-12-31T03:11:44.251Z,1.63
2022-12-31T03:14:45.875Z,2.05
2022-12-31T03:17:58.881Z,1.30
2022-12-31T03:21:18.991Z,1.88
2022-12-31T03:24:41.891Z,1.73
2022-12-31T03:27:44.922Z,1.20
2022-12-31T03:30:49.284Z,1.02
2022-12-31T03:33:50.794Z,1.25
2022-12-31T03:36:52.270Z,0.88
2022-12-31T03:39:53.754Z,1.27
2022-12-31T03:42:55.662Z,1.85
2022-12-31T03:45:59.746Z,1.23
2022-12-31T03:49:01.877Z,1.67
2022-12-31T03:52:03.538Z,1.45
2022-12-31T03:55:06.484Z,1.50
2022-12-31T03:58:08.032Z,1.17
2022-12-31T04:01:09.624Z,0.70
2022-12-31T04:04:11.180Z,1.23
2022-12-31T04:07:12.671Z,1.50
2022-12-31T04:10:16.597Z,1.13
2022-12-31T04:13:18.070Z,0.75
2022-12-31T04:16:19.637Z,1.40
2022-12-31T04:19:21.150Z,1.05
2022-12-31T04:22:22.788Z,1.08
2022-12-31T04:25:24.289Z,1.27
2022-12-31T04:28:25.836Z,1.08
2022-12-31T04:31:27.359Z,1.23
2022-12-31T04:34:28.833Z,1.00
2022-12-31T04:37:30.343Z,1.20
2022-12-31T04:40:32.161Z,1.02
2022-12-31T04:43:33.649Z,0.80
2022-12-31T04:46:35.934Z,0.55
2022-12-31T04:49:37.420Z,0.95
2022-12-31T04:52:42.917Z,0.77
2022-12-31T04:55:45.423Z,0.98
2022-12-31T04:58:47.267Z,1.58
2022-12-31T05:01:48.968Z,1.00
2022-12-31T05:04:50.599Z,1.55
2022-12-31T05:07:52.565Z,0.70
2022-12-31T05:10:54.171Z,2.83
2022-12-31T05:13:57.342Z,1.23
2022-12-31T05:16:59.296Z,1.15
2022-12-31T05:20:00.868Z,1.13
2022-12-31T05:23:02.442Z,0.98
2022-12-31T05:26:04.118Z,1.13
2022-12-31T05:29:05.641Z,0.60
2022-12-31T05:32:07.144Z,0.63
2022-12-31T05:35:09.099Z,0.98
2022-12-31T05:38:10.960Z,0.98
2022-12-31T05:41:12.467Z,0.50
2022-12-31T05:44:14.185Z,0.80
2022-12-31T05:47:16.077Z,0.70
2022-12-31T05:50:17.797Z,0.95
2022-12-31T05:53:19.373Z,0.43
2022-12-31T05:56:20.850Z,0.80
2022-12-31T05:59:22.416Z,0.70
2022-12-31T06:02:24.298Z,0.82
2022-12-31T06:05:26.416Z,0.82
2022-12-31T06:08:28.295Z,0.65
2022-12-31T06:11:29.892Z,1.70
2022-12-31T06:14:31.590Z,0.60
2022-12-31T06:17:33.087Z,1.00
2022-12-31T06:20:37.922Z,0.70
2022-12-31T06:23:40.712Z,1.35
2022-12-31T06:26:42.225Z,0.50
2022-12-31T06:29:45.609Z,1.05
2022-12-31T06:32:47.275Z,0.60
2022-12-31T06:35:48.779Z,0.98
2022-12-31T06:38:50.747Z,1.25
2022-12-31T06:41:52.219Z,1.00
2022-12-31T06:44:53.704Z,0.60
2022-12-31T06:47:55.207Z,0.85
2022-12-31T06:50:57.214Z,0.68
2022-12-31T06:53:58.699Z,0.70
2022-12-31T06:57:00.422Z,1.25
2022-12-31T07:00:02.339Z,0.60
2022-12-31T07:03:23.045Z,0.50
2022-12-31T07:06:33.352Z,0.70
2022-12-31T07:09:40.160Z,0.57
2022-12-31T07:13:06.341Z,0.68
2022-12-31T07:16:10.969Z,0.50
2022-12-31T07:20:09.854Z,0.75
2022-12-31T07:23:11.585Z,0.73
2022-12-31T07:26:13.032Z,0.47
2022-12-31T07:29:20.326Z,1.10
2022-12-31T07:32:59.371Z,0.50
2022-12-31T07:36:00.760Z,0.65
2022-12-31T07:39:22.796Z,0.80
2022-12-31T07:42:32.538Z,0.70
2022-12-31T07:45:46.623Z,0.68
2022-12-31T07:48:48.283Z,0.52
2022-12-31T07:51:50.036Z,0.50
2022-12-31T07:54:51.606Z,1.17
2022-12-31T07:58:07.298Z,2.20
2022-12-31T08:01:12.460Z,1.00
2022-12-31T08:04:26.246Z,1.42
2022-12-31T08:07:51.694Z,1.70
2022-12-31T08:11:15.119Z,0.65
2022-12-31T08:14:18.604Z,1.00
2022-12-31T08:17:20.460Z,0.57
2022-12-31T08:20:22.362Z,0.75
2022-12-31T08:23:39.153Z,0.30
2022-12-31T08:26:53.228Z,0.45
2022-12-31T08:30:08.566Z,0.88
2022-12-31T08:33:28.425Z,0.45
2022-12-31T08:36:41.535Z,1.15
2022-12-31T08:40:12.864Z,1.02
2022-12-31T08:43:23.325Z,0.95
2022-12-31T08:46:50.392Z,0.68
2022-12-31T08:49:52.064Z,0.50
2022-12-31T08:52:54.110Z,1.10
2022-12-31T08:56:05.146Z,0.75
2022-12-31T08:59:12.380Z,0.63
2022-12-31T09:02:46.204Z,1.25
2022-12-31T09:05:57.109Z,1.73
2022-12-31T09:09:24.132Z,1.00
2022-12-31T09:12:36.142Z,0.98
2022-12-31T09:15:52.775Z,0.82
2022-12-31T09:18:54.230Z,0.40
2022-12-31T09:21:56.199Z,0.50
2022-12-31T09:24:58.025Z,1.05
2022-12-31T09:28:14.428Z,0.85
2022-12-31T09:31:17.673Z,4.57
2022-12-31T09:34:22.133Z,2.40
2022-12-31T09:37:35.723Z,3.15
2022-12-31T09:40:58.773Z,1.80
2022-12-31T09:44:03.240Z,1.75
2022-12-31T09:47:23.454Z,3.15
2022-12-31T09:50:40.154Z,3.05
2022-12-31T09:53:54.009Z,2.13
2022-12-31T09:57:23.461Z,1.85
2022-12-31T10:00:36.210Z,0.98
2022-12-31T10:03:52.569Z,2.03
2022-12-31T10:07:28.269Z,2.20
2022-12-31T10:10:33.170Z,5.32
2022-12-31T10:13:49.199Z,4.80
2022-12-31T10:17:03.402Z,7.23
2022-12-31T10:20:45.070Z,10.10
2022-12-31T10:24:23.386Z,10.50
2022-12-31T10:27:44.771Z,12.88
2022-12-31T10:31:04.644Z,10.60
2022-12-31T10:34:20.215Z,11.65
2022-12-31T10:37:32.712Z,9.25
2022-12-31T10:40:55.734Z,11.30
2022-12-31T10:44:00.239Z,11.77
2022-12-31T10:47:53.230Z,10.00
2022-12-31T10:51:20.726Z,10.20
2022-12-31T10:54:49.745Z,10.55
2022-12-31T10:58:06.133Z,10.52
2022-12-31T11:01:18.721Z,8.60
2022-12-31T11:04:57.652Z,8.63
2022-12-31T11:08:14.287Z,8.50
2022-12-31T11:11:37.178Z,8.57
2022-12-31T11:15:00.180Z,7.88
2022-12-31T11:18:07.719Z,9.25
2022-12-31T11:21:28.202Z,7.07
2022-12-31T11:24:56.569Z,6.70
2022-12-31T11:28:25.935Z,7.88
2022-12-31T11:31:53.626Z,6.97
2022-12-31T11:35:32.742Z,7.03
2022-12-31T11:38:43.371Z,6.15
2022-12-31T11:42:01.060Z,6.72
2022-12-31T11:45:02.877Z,9.52
2022-12-31T11:48:34.950Z,7.35
2022-12-31T11:52:06.857Z,6.32
2022-12-31T11:55:24.167Z,7.57
2022-12-31T11:58:28.580Z,5.47
2022-12-31T12:01:54.337Z,6.30
2022-12-31T12:05:03.703Z,6.13
2022-12-31T12:08:11.217Z,5.28
2022-12-31T12:11:23.908Z,6.28
2022-12-31T12:14:31.143Z,5.30
2022-12-31T12:17:34.269Z,5.45
2022-12-31T12:20:38.114Z,5.35
2022-12-31T12:23:40.462Z,6.40
2022-12-31T12:26:44.381Z,5.82
2022-12-31T12:29:47.354Z,7.00
2022-12-31T12:33:01.511Z,4.43
2022-12-31T12:36:11.717Z,5.38
2022-12-31T12:39:22.460Z,4.30
2022-12-31T12:42:23.990Z,5.38
2022-12-31T12:45:30.075Z,5.35
2022-12-31T12:48:40.947Z,6.18
2022-12-31T12:52:19.526Z,4.97
2022-12-31T12:56:02.918Z,4.90
2022-12-31T12:59:27.560Z,6.53
2022-12-31T13:02:41.497Z,4.75
2022-12-31T13:06:19.382Z,4.47
2022-12-31T13:09:29.979Z,3.85
2022-12-31T13:13:22.122Z,4.03
2022-12-31T13:16:22.398Z,6.70
2022-12-31T13:19:41.905Z,4.95
2022-12-31T13:22:54.647Z,3.78
2022-12-31T13:26:08.975Z,4.57
2022-12-31T13:29:18.933Z,5.20
2022-12-31T13:32:32.433Z,6.35
2022-12-31T13:35:43.560Z,8.38
2022-12-31T13:38:53.274Z,8.00
2022-12-31T13:42:05.289Z,8.45
2022-12-31T13:45:16.618Z,8.55
2022-12-31T13:48:26.386Z,8.45
2022-12-31T13:51:49.623Z,8.80
2022-12-31T13:55:10.247Z,9.73
2022-12-31T13:58:39.831Z,10.55
2022-12-31T14:02:06.501Z,13.68
2022-12-31T14:05:13.802Z,17.08
2022-12-31T14:08:15.934Z,18.73
2022-12-31T14:11:54.597Z,22.40
2022-12-31T14:15:13.816Z,23.05
2022-12-31T14:18:39.406Z,26.35
2022-12-31T14:22:01.844Z,27.50
2022-12-31T14:25:14.309Z,28.58
2022-12-31T14:28:21.426Z,27.00
2022-12-31T14:31:39.270Z,27.55
2022-12-31T14:35:01.909Z,27.05
2022-12-31T14:38:24.985Z,26.63
2022-12-31T14:41:29.508Z,25.13
2022-12-31T14:45:03.460Z,25.73
2022-12-31T14:48:28.590Z,25.10
2022-12-31T14:51:30.591Z,23.85
2022-12-31T14:54:37.357Z,23.25
2022-12-31T14:58:09.694Z,21.13
2022-12-31T15:01:18.921Z,20.83
2022-12-31T15:04:42.606Z,19.80
2022-12-31T15:08:04.282Z,18.75
2022-12-31T15:11:05.667Z,17.60
2022-12-31T15:14:37.566Z,16.98
2022-12-31T15:17:45.720Z,16.90
2022-12-31T15:21:20.701Z,15.55
2022-12-31T15:24:24.943Z,15.00
2022-12-31T15:27:26.340Z,14.32
2022-12-31T15:30:39.477Z,13.02
2022-12-31T15:33:55.127Z,12.60
2022-12-31T15:36:59.790Z,11.85
2022-12-31T15:40:29.485Z,11.45
2022-12-31T15:43:40.786Z,12.07
2022-12-31T15:46:43.210Z,11.02
2022-12-31T15:49:46.574Z,10.05
2022-12-31T15:53:03.557Z,10.40
2022-12-31T15:56:07.377Z,9.73
2022-12-31T15:59:14.379Z,10.18
2022-12-31T16:02:23.225Z,9.05
2022-12-31T16:05:27.076Z,11.13
2022-12-31T16:08:31.482Z,8.30
2022-12-31T16:11:41.510Z,9.48
2022-12-31T16:14:46.175Z,8.25
2022-12-31T16:18:02.173Z,7.88
2022-12-31T16:21:04.154Z,7.70
2022-12-31T16:24:25.872Z,7.38
2022-12-31T16:27:29.964Z,8.63
2022-12-31T16:30:33.765Z,7.28
2022-12-31T16:33:35.821Z,22.08
2022-12-31T16:36:37.370Z,10.68
2022-12-31T16:39:57.711Z,8.52
2022-12-31T16:43:00.117Z,7.30
2022-12-31T16:46:25.494Z,7.22
2022-12-31T16:49:30.389Z,8.05
2022-12-31T16:52:40.779Z,8.88
2022-12-31T16:55:42.286Z,9.45
2022-12-31T16:58:47.925Z,10.73
2022-12-31T17:01:50.346Z,8.87
2022-12-31T17:04:56.048Z,11.60
2022-12-31T17:07:58.248Z,11.02
2022-12-31T17:11:03.267Z,11.63
2022-12-31T17:14:07.769Z,15.23
2022-12-31T17:17:19.920Z,11.88
2022-12-31T17:20:29.112Z,14.07
2022-12-31T17:23:34.370Z,12.68
2022-12-31T17:26:38.003Z,15.18
2022-12-31T17:29:39.557Z,16.52
2022-12-31T17:32:42.639Z,15.02
2022-12-31T17:35:45.205Z,16.20
2022-12-31T17:38:46.767Z,19.58
2022-12-31T17:41:51.044Z,21.63
2022-12-31T17:44:56.683Z,20.75
2022-12-31T17:47:59.741Z,22.30
2022-12-31T17:51:01.998Z,21.85
2022-12-31T17:54:12.231Z,20.92
2022-12-31T17:57:27.743Z,21.30
2022-12-31T18:00:29.365Z,23.48
2022-12-31T18:03:30.834Z,22.38
2022-12-31T18:06:32.270Z,19.42
2022-12-31T18:09:33.725Z,19.23
2022-12-31T18:12:36.185Z,18.63
2022-12-31T18:15:37.633Z,18.25
2022-12-31T18:18:40.890Z,12.40
2022-12-31T18:21:44.579Z,10.77
2022-12-31T18:24:47.731Z,9.52
2022-12-31T18:27:50.718Z,9.35
2022-12-31T18:30:52.748Z,10.32
2022-12-31T18:33:56.258Z,10.90
2022-12-31T18:36:57.837Z,7.68
2022-12-31T18:39:59.299Z,11.82
2022-12-31T18:43:04.982Z,9.38
2022-12-31T18:46:12.305Z,16.48
2022-12-31T18:49:13.797Z,8.52
2022-12-31T18:52:21.543Z,7.15
2022-12-31T18:55:33.565Z,6.53
2022-12-31T18:58:35.089Z,6.22
2022-12-31T19:01:40.915Z,8.68
2022-12-31T19:04:42.519Z,6.10
2022-12-31T19:07:44.024Z,5.20
2022-12-31T19:10:46.370Z,7.97
2022-12-31T19:13:48.750Z,6.70
2022-12-31T19:16:52.505Z,6.22
2022-12-31T19:19:54.084Z,5.28
2022-12-31T19:22:56.218Z,5.32
2022-12-31T19:25:57.677Z,5.03
2022-12-31T19:28:59.111Z,5.05
2022-12-31T19:32:02.223Z,7.35
2022-12-31T19:35:04.112Z,4.93
2022-12-31T19:38:11.831Z,4.68
2022-12-31T19:41:18.788Z,4.80
2022-12-31T19:44:20.322Z,5.22
2022-12-31T19:47:21.881Z,5.70
2022-12-31T19:50:26.453Z,4.35
2022-12-31T19:53:28.555Z,4.68
2022-12-31T19:56:30.070Z,5.50
2022-12-31T19:59:31.529Z,5.97
2022-12-31T20:02:33.189Z,4.68
2022-12-31T20:05:34.860Z,4.47
2022-12-31T20:08:38.490Z,4.25
2022-12-31T20:11:40.140Z,4.68
2022-12-31T20:14:41.666Z,5.53
2022-12-31T20:17:43.319Z,4.15
2022-12-31T20:20:53.547Z,4.78
2022-12-31T20:23:57.150Z,5.45
2022-12-31T20:26:58.718Z,3.53
2022-12-31T20:30:00.342Z,3.58
2022-12-31T20:33:01.814Z,4.72
2022-12-31T20:36:08.859Z,3.95
2022-12-31T20:39:10.615Z,4.28
2022-12-31T20:42:12.131Z,5.55
2022-12-31T20:45:13.617Z,6.05
2022-12-31T20:48:15.091Z,4.43
2022-12-31T20:51:20.501Z,5.57
2022-12-31T20:54:22.060Z,4.25
2022-12-31T20:57:24.416Z,3.58
2022-12-31T21:00:28.096Z,4.95
2022-12-31T21:04:03.678Z,4.53
2022-12-31T21:06:52.180Z,3.42
2022-12-31T21:09:53.658Z,4.30
2022-12-31T21:12:55.140Z,5.15
2022-12-31T21:15:56.714Z,5.43
2022-12-31T21:18:58.675Z,4.22
2022-12-31T21:22:00.170Z,7.82
2022-12-31T21:25:02.512Z,4.15
2022-12-31T21:28:04.037Z,4.13
2022-12-31T21:31:07.372Z,3.97
2022-12-31T21:34:09.582Z,4.40
2022-12-31T21:37:11.098Z,4.38
2022-12-31T21:40:12.573Z,3.75
2022-12-31T21:43:15.276Z,3.30
2022-12-31T21:46:16.737Z,4.18
2022-12-31T21:49:18.199Z,4.28
2022-12-31T21:52:30.462Z,4.15
2022-12-31T21:55:50.677Z,4.30
2022-12-31T21:59:14.221Z,3.45
2022-12-31T22:02:34.246Z,3.10
2022-12-31T22:05:36.482Z,3.88
2022-12-31T22:08:40.051Z,3.03
2022-12-31T22:11:41.622Z,4.43
2022-12-31T22:15:15.120Z,2.60
2022-12-31T22:18:04.569Z,3.47
2022-12-31T22:21:12.272Z,3.80
2022-12-31T22:24:19.153Z,3.35
2022-12-31T22:27:28.830Z,3.33
2022-12-31T22:30:31.779Z,3.42
2022-12-31T22:33:33.404Z,3.40
2022-12-31T22:36:35.005Z,3.10
2022-12-31T22:39:43.672Z,3.47
2022-12-31T22:42:46.036Z,5.35
2022-12-31T22:45:47.522Z,2.95
2022-12-31T22:48:50.292Z,3.40
2022-12-31T22:51:55.169Z,2.95
2022-12-31T22:54:59.010Z,4.13
2022-12-31T22:58:00.500Z,2.50
2022-12-31T23:01:07.118Z,3.88
2022-12-31T23:04:08.825Z,3.92
2022-12-31T23:07:10.429Z,4.07
2022-12-31T23:10:30.438Z,4.45
2022-12-31T23:14:01.036Z,3.05
2022-12-31T23:17:30.172Z,2.38
2022-12-31T23:20:51.801Z,3.97
2022-12-31T23:23:53.711Z,3.78
2022-12-31T23:26:56.898Z,4.25
2022-12-31T23:29:58.393Z,4.45
2022-12-31T23:33:00.091Z,5.30
2022-12-31T23:36:05.724Z,3.42
2022-12-31T23:39:07.516Z,5.40
2022-12-31T23:42:08.987Z,2.97
2022-12-31T23:45:10.580Z,3.30
2022-12-31T23:48:11.999Z,4.05
2022-12-31T23:51:13.555Z,3.75
2022-12-31T23:54:15.797Z,3.33
2022-12-31T23:57:17.364Z,3.58
